createdAt,value
2018-09-19T00:00:16.073Z,19.90
2018-09-19T00:02:45.122Z,19.70
2018-09-19T00:05:14.107Z,19.60
2018-09-19T00:07:43.080Z,19.60
2018-09-19T00:10:12.196Z,19.40
2018-09-19T00:12:41.167Z,19.40
2018-09-19T00:15:10.003Z,19.60
2018-09-19T00:17:38.861Z,19.40
2018-09-19T00:20:07.887Z,19.50
2018-09-19T00:22:37.120Z,19.30
2018-09-19T00:25:06.004Z,19.30
2018-09-19T00:27:34.813Z,19.20
2018-09-19T00:30:03.907Z,19.20
2018-09-19T00:32:32.672Z,19.00
2018-09-19T00:35:01.513Z,19.00
2018-09-19T00:37:30.463Z,19.10
2018-09-19T00:39:59.329Z,19.10
2018-09-19T00:42:28.204Z,19.10
2018-09-19T00:44:57.074Z,19.20
2018-09-19T00:47:25.931Z,19.30
2018-09-19T00:49:54.837Z,19.40
2018-09-19T00:52:23.761Z,19.40
2018-09-19T00:54:52.657Z,19.40
2018-09-19T00:57:21.597Z,19.40
2018-09-19T00:59:50.504Z,19.40
2018-09-19T01:02:19.365Z,19.40
2018-09-19T01:04:48.155Z,19.40
2018-09-19T01:07:17.322Z,19.30
2018-09-19T01:09:46.221Z,19.50
2018-09-19T01:29:31.559Z,19.30
2018-09-19T01:32:00.577Z,19.30
2018-09-19T01:34:30.393Z,19.30
2018-09-19T01:36:59.303Z,19.30
2018-09-19T01:39:28.855Z,19.20
2018-09-19T01:41:57.666Z,19.20
2018-09-19T01:44:27.281Z,19.20
2018-09-19T01:46:56.072Z,19.10
2018-09-19T01:49:26.039Z,19.10
2018-09-19T01:51:55.365Z,19.00
2018-09-19T01:54:25.209Z,19.00
2018-09-19T01:56:54.581Z,19.00
2018-09-19T01:59:23.316Z,18.90
2018-09-19T02:01:52.190Z,18.90
2018-09-19T02:04:21.743Z,18.90
2018-09-19T02:06:51.668Z,18.90
2018-09-19T02:09:20.470Z,18.90
2018-09-19T02:11:49.250Z,19.00
2018-09-19T02:14:18.273Z,18.90
2018-09-19T02:16:47.856Z,18.90
2018-09-19T02:19:16.791Z,18.90
2018-09-19T02:21:46.367Z,18.90
2018-09-19T02:24:15.279Z,18.80
2018-09-19T02:26:44.165Z,18.80
2018-09-19T02:29:13.415Z,18.80
2018-09-19T02:31:43.668Z,18.80
2018-09-19T02:34:13.377Z,18.80
2018-09-19T02:36:42.288Z,18.90
2018-09-19T02:39:11.558Z,18.80
2018-09-19T02:41:40.384Z,18.80
2018-09-19T02:44:09.987Z,18.80
2018-09-19T02:46:39.395Z,18.80
2018-09-19T02:49:08.322Z,18.70
2018-09-19T02:51:37.170Z,18.60
2018-09-19T02:54:06.435Z,18.50
2018-09-19T02:56:35.315Z,18.30
2018-09-19T02:59:05.834Z,18.30
2018-09-19T03:01:34.670Z,18.20
2018-09-19T03:04:05.018Z,18.10
2018-09-19T03:06:34.060Z,18.30
2018-09-19T03:09:04.987Z,18.10
2018-09-19T03:11:34.532Z,18.20
2018-09-19T03:14:03.897Z,18.20
2018-09-19T03:16:33.402Z,18.30
2018-09-19T03:19:03.152Z,18.40
2018-09-19T03:21:32.882Z,18.40
2018-09-19T03:24:03.886Z,18.30
2018-09-19T03:26:34.963Z,18.30
2018-09-19T03:29:04.922Z,18.10
2018-09-19T03:31:33.798Z,18.20
2018-09-19T03:34:02.842Z,18.10
2018-09-19T03:36:32.513Z,18.00
2018-09-19T03:39:01.461Z,17.90
2018-09-19T03:41:31.061Z,17.90
2018-09-19T03:44:00.611Z,17.90
2018-09-19T03:46:30.285Z,18.00
2018-09-19T03:48:59.220Z,18.00
2018-09-19T03:51:28.124Z,17.90
2018-09-19T03:53:57.722Z,18.00
2018-09-19T03:56:26.619Z,18.00
2018-09-19T03:58:55.429Z,17.90
2018-09-19T04:01:24.384Z,18.00
2018-09-19T04:03:53.367Z,18.00
2018-09-19T04:06:22.273Z,18.00
2018-09-19T04:08:51.211Z,18.00
2018-09-19T04:11:20.146Z,18.00
2018-09-19T04:13:49.067Z,18.10
2018-09-19T04:16:17.975Z,18.10
2018-09-19T04:18:46.924Z,18.20
2018-09-19T04:21:24.221Z,18.20
2018-09-19T04:23:53.310Z,18.20
2018-09-19T04:26:22.305Z,18.20
2018-09-19T04:28:51.296Z,18.20
2018-09-19T04:31:20.355Z,18.20
2018-09-19T04:33:49.333Z,18.20
2018-09-19T04:36:19.098Z,18.20
2018-09-19T04:38:48.043Z,18.10
2018-09-19T04:41:17.106Z,18.10
2018-09-19T04:43:46.040Z,18.00
2018-09-19T04:46:15.230Z,18.00
2018-09-19T04:48:44.903Z,18.00
2018-09-19T04:51:13.890Z,18.00
2018-09-19T04:53:42.995Z,18.00
2018-09-19T04:56:12.160Z,18.00
2018-09-19T04:58:41.160Z,18.00
2018-09-19T05:01:10.057Z,18.10
2018-09-19T05:03:39.671Z,18.00
2018-09-19T05:06:08.829Z,17.90
2018-09-19T05:08:37.927Z,18.00
2018-09-19T05:11:07.365Z,17.80
2018-09-19T05:13:36.520Z,18.00
2018-09-19T05:16:06.522Z,17.90
2018-09-19T05:18:35.616Z,18.00
2018-09-19T05:21:05.484Z,18.00
2018-09-19T05:23:35.075Z,18.00
2018-09-19T05:26:04.237Z,18.00
2018-09-19T05:28:33.481Z,18.00
2018-09-19T05:31:03.052Z,18.00
2018-09-19T05:33:32.182Z,18.00
2018-09-19T05:36:01.406Z,18.00
2018-09-19T05:38:30.538Z,18.00
2018-09-19T05:41:00.862Z,18.10
2018-09-19T05:43:30.060Z,18.10
2018-09-19T05:45:59.166Z,18.20
2018-09-19T05:48:28.261Z,18.30
2018-09-19T05:50:58.150Z,18.40
2018-09-19T05:53:28.336Z,18.40
2018-09-19T05:55:57.502Z,18.50
2018-09-19T05:58:26.883Z,18.60
2018-09-19T06:00:55.922Z,18.70
2018-09-19T06:03:25.125Z,18.80
2018-09-19T06:05:59.122Z,18.80
2018-09-19T06:08:28.222Z,18.90
2018-09-19T06:10:57.389Z,18.90
2018-09-19T06:13:26.473Z,18.90
2018-09-19T06:15:55.575Z,18.80
2018-09-19T06:18:24.825Z,19.00
2018-09-19T06:20:53.805Z,19.00
2018-09-19T06:23:22.873Z,19.00
2018-09-19T06:25:52.268Z,19.00
2018-09-19T06:28:21.369Z,19.10
2018-09-19T06:30:50.511Z,19.10
2018-09-19T06:33:19.922Z,19.20
2018-09-19T06:35:48.979Z,19.30
2018-09-19T06:38:18.056Z,19.40
2018-09-19T06:40:47.529Z,19.50
2018-09-19T06:43:16.544Z,19.60
2018-09-19T06:45:45.709Z,19.70
2018-09-19T06:48:15.028Z,19.80
2018-09-19T06:50:44.031Z,19.90
2018-09-19T06:53:13.113Z,19.90
2018-09-19T06:55:43.261Z,19.90
2018-09-19T06:58:12.423Z,20.00
2018-09-19T07:00:41.366Z,20.10
2018-09-19T07:03:10.477Z,20.20
2018-09-19T07:05:39.758Z,20.30
2018-09-19T07:08:09.065Z,20.40
2018-09-19T07:10:38.354Z,20.50
2018-09-19T07:30:25.059Z,22.00
2018-09-19T07:32:54.012Z,22.70
2018-09-19T07:35:22.941Z,23.10
2018-09-19T07:37:51.865Z,23.40
2018-09-19T07:40:20.938Z,23.40
2018-09-19T07:42:49.852Z,23.40
2018-09-19T07:45:18.821Z,23.30
2018-09-19T07:47:48.097Z,23.50
2018-09-19T07:50:17.038Z,24.20
2018-09-19T07:52:45.886Z,24.80
2018-09-19T07:55:14.866Z,25.20
2018-09-19T07:57:43.678Z,25.40
2018-09-19T08:00:12.673Z,25.60
2018-09-19T08:02:42.590Z,25.50
2018-09-19T08:05:11.525Z,25.70
2018-09-19T08:07:40.575Z,26.40
2018-09-19T08:10:09.629Z,27.40
2018-09-19T08:12:38.620Z,28.00
2018-09-19T08:15:07.666Z,28.70
2018-09-19T08:17:36.643Z,29.20
2018-09-19T08:20:05.675Z,29.40
2018-09-19T08:22:34.710Z,29.20
2018-09-19T08:25:03.785Z,28.80
2018-09-19T08:27:32.661Z,28.60
2018-09-19T08:30:01.517Z,28.60
2018-09-19T08:32:30.458Z,28.60
2018-09-19T08:34:59.357Z,28.40
2018-09-19T08:37:28.491Z,28.20
2018-09-19T08:39:57.361Z,28.00
2018-09-19T08:42:26.384Z,27.90
2018-09-19T08:44:55.369Z,27.70
2018-09-19T08:47:24.298Z,27.60
2018-09-19T08:49:53.634Z,27.50
2018-09-19T08:52:22.987Z,27.60
2018-09-19T08:54:52.165Z,27.90
2018-09-19T08:57:21.769Z,27.90
2018-09-19T08:59:50.663Z,27.70
2018-09-19T09:02:25.873Z,27.60
2018-09-19T09:04:55.083Z,27.60
2018-09-19T09:07:24.184Z,27.50
2018-09-19T09:09:53.253Z,27.30
2018-09-19T09:12:22.294Z,27.10
2018-09-19T09:14:51.255Z,26.90
2018-09-19T09:17:20.243Z,26.80
2018-09-19T09:19:56.079Z,26.50
2018-09-19T09:22:25.048Z,26.40
2018-09-19T09:24:53.955Z,26.30
2018-09-19T09:27:23.047Z,26.20
2018-09-19T09:29:51.971Z,26.00
2018-09-19T09:32:20.999Z,26.00
2018-09-19T09:34:49.855Z,26.00
2018-09-19T09:37:19.065Z,25.90
2018-09-19T09:39:47.952Z,25.80
2018-09-19T09:42:16.978Z,25.70
2018-09-19T09:44:45.926Z,25.70
2018-09-19T09:47:14.949Z,25.70
2018-09-19T09:49:43.937Z,25.60
2018-09-19T09:52:12.901Z,25.60
2018-09-19T09:54:41.873Z,25.60
2018-09-19T09:57:10.845Z,25.60
2018-09-19T09:59:39.799Z,25.70
2018-09-19T10:02:09.136Z,25.70
2018-09-19T10:04:38.173Z,25.70
2018-09-19T10:07:07.390Z,25.80
2018-09-19T10:09:36.284Z,25.80
2018-09-19T10:12:05.281Z,25.80
2018-09-19T10:14:34.238Z,26.00
2018-09-19T10:17:03.052Z,26.20
2018-09-19T10:19:32.066Z,26.40
2018-09-19T10:22:01.098Z,26.60
2018-09-19T10:24:31.611Z,26.60
2018-09-19T10:27:00.556Z,26.60
2018-09-19T10:29:29.542Z,26.80
2018-09-19T10:31:58.416Z,26.80
2018-09-19T10:34:27.314Z,26.70
2018-09-19T10:36:56.290Z,26.70
2018-09-19T10:39:25.162Z,26.80
2018-09-19T10:41:54.107Z,26.80
2018-09-19T10:44:23.107Z,26.80
2018-09-19T10:46:52.033Z,27.10
2018-09-19T10:49:21.403Z,27.20
2018-09-19T10:51:50.321Z,27.30
2018-09-19T10:54:19.341Z,27.30
2018-09-19T10:56:48.249Z,26.80
2018-09-19T10:59:17.279Z,26.40
2018-09-19T11:01:46.581Z,26.00
2018-09-19T11:04:15.870Z,25.50
2018-09-19T11:06:44.849Z,25.20
2018-09-19T11:09:13.896Z,25.10
2018-09-19T11:11:42.941Z,25.10
2018-09-19T11:14:12.053Z,24.90
2018-09-19T11:16:41.017Z,24.70
2018-09-19T11:19:10.158Z,24.70
2018-09-19T11:21:39.079Z,24.80
2018-09-19T11:24:15.274Z,24.80
2018-09-19T11:26:44.196Z,24.70
2018-09-19T11:29:13.217Z,24.70
2018-09-19T11:31:42.175Z,24.80
2018-09-19T11:34:11.160Z,24.50
2018-09-19T11:36:39.989Z,24.50
2018-09-19T11:39:11.000Z,24.50
2018-09-19T11:41:40.073Z,24.60
2018-09-19T11:44:09.398Z,24.60
2018-09-19T11:46:38.367Z,24.50
2018-09-19T11:49:07.558Z,24.40
2018-09-19T11:51:35.838Z,24.40
2018-09-19T11:54:03.350Z,24.30
2018-09-19T11:56:31.173Z,24.20
2018-09-19T11:58:58.672Z,24.20
2018-09-19T12:01:26.387Z,24.30
2018-09-19T12:03:53.947Z,24.40
2018-09-19T12:06:21.447Z,24.50
2018-09-19T12:08:49.070Z,24.70
2018-09-19T12:11:16.675Z,24.70
2018-09-19T12:13:44.286Z,24.70
2018-09-19T12:16:11.847Z,24.80
2018-09-19T12:18:39.413Z,24.90
2018-09-19T12:21:08.390Z,24.90
2018-09-19T12:23:37.381Z,25.00
2018-09-19T12:26:06.359Z,25.10
2018-09-19T12:28:35.366Z,25.20
2018-09-19T12:31:04.493Z,25.30
2018-09-19T12:33:33.426Z,25.30
2018-09-19T12:36:02.455Z,25.30
2018-09-19T12:38:31.494Z,25.20
2018-09-19T12:41:00.437Z,25.10
2018-09-19T12:43:29.435Z,25.20
2018-09-19T12:45:58.521Z,25.20
2018-09-19T12:48:27.622Z,25.20
2018-09-19T12:50:56.537Z,25.20
2018-09-19T12:53:25.613Z,25.20
2018-09-19T12:55:55.229Z,25.10
2018-09-19T12:58:24.249Z,25.20
2018-09-19T13:00:53.740Z,25.30
2018-09-19T13:03:22.790Z,25.20
2018-09-19T13:05:53.482Z,25.10
2018-09-19T13:08:22.471Z,25.10
2018-09-19T13:10:51.554Z,25.10
2018-09-19T13:13:20.622Z,25.10
2018-09-19T13:15:49.588Z,25.10
2018-09-19T13:18:18.542Z,25.10
2018-09-19T13:20:47.501Z,25.10
2018-09-19T13:23:18.002Z,25.10
2018-09-19T13:25:47.244Z,25.10
2018-09-19T13:28:16.350Z,25.30
2018-09-19T13:30:45.238Z,25.20
2018-09-19T13:33:14.448Z,25.20
2018-09-19T13:35:43.644Z,25.20
2018-09-19T13:38:12.955Z,25.30
2018-09-19T13:40:42.122Z,25.30
2018-09-19T13:43:11.389Z,25.30
2018-09-19T13:45:40.433Z,25.40
2018-09-19T13:48:09.835Z,25.30
2018-09-19T13:50:46.797Z,25.30
2018-09-19T13:53:18.916Z,25.30
2018-09-19T13:55:53.066Z,25.40
2018-09-19T13:58:22.167Z,25.40
2018-09-19T14:00:51.452Z,25.40
2018-09-19T14:03:20.597Z,25.40
2018-09-19T14:05:49.884Z,25.40
2018-09-19T14:08:25.574Z,25.50
2018-09-19T14:10:54.644Z,25.50
2018-09-19T14:13:23.642Z,25.50
2018-09-19T14:15:52.629Z,25.50
2018-09-19T14:18:22.333Z,25.60
2018-09-19T14:20:50.090Z,25.50
2018-09-19T14:23:17.793Z,25.50
2018-09-19T14:25:45.525Z,25.50
2018-09-19T14:28:13.347Z,25.50
2018-09-19T14:30:41.037Z,25.50
2018-09-19T14:33:08.832Z,25.50
2018-09-19T14:35:36.645Z,25.40
2018-09-19T14:38:04.322Z,25.40
2018-09-19T14:40:31.944Z,25.30
2018-09-19T14:42:59.553Z,25.30
2018-09-19T14:45:27.298Z,25.30
2018-09-19T14:47:54.931Z,25.30
2018-09-19T14:50:22.533Z,25.20
2018-09-19T14:52:50.155Z,25.20
2018-09-19T14:55:17.912Z,25.30
2018-09-19T14:57:45.617Z,25.30
2018-09-19T15:00:13.134Z,25.30
2018-09-19T15:02:41.212Z,25.20
2018-09-19T15:05:08.835Z,25.30
2018-09-19T15:07:36.487Z,25.30
2018-09-19T15:10:04.197Z,25.30
2018-09-19T15:12:31.889Z,25.30
2018-09-19T15:15:01.826Z,25.20
2018-09-19T15:17:30.926Z,25.30
2018-09-19T15:20:00.029Z,25.30
2018-09-19T15:22:29.163Z,25.40
2018-09-19T15:24:58.093Z,25.30
2018-09-19T15:27:27.224Z,25.20
2018-09-19T15:29:56.288Z,25.20
2018-09-19T15:32:25.548Z,25.30
2018-09-19T15:34:54.565Z,25.30
2018-09-19T15:37:23.621Z,25.20
2018-09-19T15:39:52.813Z,25.30
2018-09-19T15:42:21.891Z,25.30
2018-09-19T15:44:50.854Z,25.40
2018-09-19T15:47:19.877Z,25.30
2018-09-19T15:49:48.859Z,25.20
2018-09-19T15:52:17.992Z,25.20
2018-09-19T15:54:47.017Z,25.20
2018-09-19T15:57:17.186Z,25.20
2018-09-19T15:59:46.290Z,25.20
2018-09-19T16:02:19.031Z,25.20
2018-09-19T16:04:48.178Z,25.10
2018-09-19T16:07:17.332Z,25.20
2018-09-19T16:09:46.420Z,25.20
2018-09-19T16:12:15.624Z,25.20
2018-09-19T16:14:44.713Z,25.20
2018-09-19T16:17:13.926Z,25.10
2018-09-19T16:19:42.925Z,25.10
2018-09-19T16:22:12.018Z,25.10
2018-09-19T16:24:50.428Z,25.10
2018-09-19T16:27:19.962Z,24.90
2018-09-19T16:29:49.014Z,25.10
2018-09-19T16:32:18.001Z,25.00
2018-09-19T16:34:47.125Z,25.00
2018-09-19T16:37:16.202Z,25.00
2018-09-19T16:39:45.531Z,24.90
2018-09-19T16:42:14.713Z,24.90
2018-09-19T16:44:43.885Z,24.90
2018-09-19T16:47:13.037Z,24.90
2018-09-19T16:49:42.036Z,24.80
2018-09-19T16:52:11.290Z,24.90
2018-09-19T16:54:40.278Z,24.80
2018-09-19T16:57:09.213Z,24.70
2018-09-19T16:59:38.259Z,24.70
2018-09-19T17:02:07.616Z,24.60
2018-09-19T17:04:36.663Z,24.50
2018-09-19T17:07:05.978Z,24.50
2018-09-19T17:09:35.040Z,24.50
2018-09-19T17:12:04.066Z,24.50
2018-09-19T17:14:33.046Z,24.40
2018-09-19T17:17:03.175Z,24.20
2018-09-19T17:19:38.770Z,24.20
2018-09-19T17:22:07.924Z,24.10
2018-09-19T17:24:36.896Z,24.10
2018-09-19T17:27:06.140Z,24.10
2018-09-19T17:29:35.137Z,24.10
2018-09-19T17:32:04.630Z,24.20
2018-09-19T17:34:34.100Z,24.20
2018-09-19T17:37:03.318Z,24.20
2018-09-19T17:39:32.378Z,24.10
2018-09-19T17:42:01.420Z,24.20
2018-09-19T17:44:32.561Z,24.10
2018-09-19T17:47:01.616Z,24.10
2018-09-19T17:49:31.047Z,24.10
2018-09-19T17:52:03.214Z,24.10
2018-09-19T17:54:32.651Z,24.10
2018-09-19T17:57:02.240Z,24.00
2018-09-19T17:59:31.732Z,24.10
2018-09-19T18:02:00.932Z,24.10
2018-09-19T18:04:30.184Z,23.90
2018-09-19T18:06:59.209Z,23.90
2018-09-19T18:09:34.968Z,24.00
2018-09-19T18:12:03.965Z,23.80
2018-09-19T18:14:32.988Z,23.80
2018-09-19T18:17:08.589Z,23.80
2018-09-19T18:19:37.598Z,23.80
2018-09-19T18:22:06.631Z,23.80
2018-09-19T18:24:35.587Z,23.80
2018-09-19T18:27:04.548Z,23.70
2018-09-19T18:29:33.759Z,23.70
2018-09-19T18:32:03.140Z,23.60
2018-09-19T18:34:32.179Z,23.60
2018-09-19T18:37:01.151Z,23.60
2018-09-19T18:39:30.163Z,23.60
2018-09-19T18:41:59.089Z,23.60
2018-09-19T18:44:28.039Z,23.50
2018-09-19T18:46:57.016Z,23.40
2018-09-19T18:49:26.111Z,23.40
2018-09-19T18:51:56.166Z,23.40
2018-09-19T18:54:25.593Z,23.40
2018-09-19T18:56:54.741Z,23.40
2018-09-19T18:59:23.813Z,23.40
2018-09-19T19:01:52.766Z,23.30
2018-09-19T19:04:21.906Z,23.30
2018-09-19T19:06:50.926Z,23.30
2018-09-19T19:09:20.012Z,23.20
2018-09-19T19:11:49.016Z,23.20
2018-09-19T19:14:18.199Z,23.20
2018-09-19T19:16:47.169Z,23.10
2018-09-19T19:19:16.288Z,23.10
2018-09-19T19:21:45.392Z,23.10
2018-09-19T19:24:14.489Z,23.10
2018-09-19T19:26:43.344Z,22.90
2018-09-19T19:29:12.457Z,23.00
2018-09-19T19:31:41.550Z,22.90
2018-09-19T19:34:10.801Z,22.80
2018-09-19T19:36:39.785Z,22.80
2018-09-19T19:39:10.376Z,22.80
2018-09-19T19:41:39.379Z,22.80
2018-09-19T19:44:08.377Z,22.80
2018-09-19T19:46:37.788Z,22.70
2018-09-19T19:49:06.737Z,22.70
2018-09-19T19:51:35.790Z,22.70
2018-09-19T19:54:04.808Z,22.60
2018-09-19T19:56:33.713Z,22.50
2018-09-19T19:59:03.651Z,22.60
2018-09-19T20:01:32.634Z,22.60
2018-09-19T20:04:01.766Z,22.50
2018-09-19T20:06:30.714Z,22.50
2018-09-19T20:09:02.226Z,22.40
2018-09-19T20:11:38.527Z,22.40
2018-09-19T20:14:07.652Z,22.40
2018-09-19T20:16:36.639Z,22.40
2018-09-19T20:19:05.949Z,22.40
2018-09-19T20:21:34.932Z,22.30
2018-09-19T20:24:04.250Z,22.30
2018-09-19T20:26:33.275Z,22.20
2018-09-19T20:29:02.320Z,22.20
2018-09-19T20:31:32.300Z,22.10
2018-09-19T20:34:01.178Z,22.10
2018-09-19T20:36:31.236Z,22.10
2018-09-19T20:39:00.247Z,22.00
2018-09-19T20:41:29.336Z,22.00
2018-09-19T20:43:58.313Z,21.90
2018-09-19T20:46:27.321Z,21.90
2018-09-19T20:48:56.335Z,21.80
2018-09-19T20:51:25.348Z,21.90
2018-09-19T20:53:54.557Z,21.80
2018-09-19T20:56:23.471Z,21.80
2018-09-19T20:58:53.124Z,21.80
2018-09-19T21:01:22.019Z,21.70
2018-09-19T21:03:54.615Z,21.70
2018-09-19T21:06:25.117Z,21.70
2018-09-19T21:08:54.371Z,21.70
2018-09-19T21:11:23.297Z,21.60
2018-09-19T21:13:50.873Z,21.60
2018-09-19T21:16:19.869Z,21.60
2018-09-19T21:18:48.840Z,21.50
2018-09-19T21:21:17.770Z,21.50
2018-09-19T21:23:46.829Z,21.50
2018-09-19T21:26:15.867Z,21.50
2018-09-19T21:28:44.807Z,21.50
2018-09-19T21:31:13.761Z,21.40
2018-09-19T21:33:42.687Z,21.50
2018-09-19T21:36:11.667Z,21.40
2018-09-19T21:38:43.024Z,21.40
2018-09-19T21:41:11.978Z,21.40
2018-09-19T21:43:40.830Z,21.30
2018-09-19T21:46:09.810Z,21.30
2018-09-19T21:48:38.857Z,21.20
2018-09-19T21:51:07.989Z,21.20
2018-09-19T21:53:36.976Z,21.20
2018-09-19T21:56:05.829Z,21.10
2018-09-19T21:58:34.718Z,21.10
2018-09-19T22:01:09.894Z,21.00
2018-09-19T22:03:41.180Z,21.00
2018-09-19T22:06:10.344Z,21.00
2018-09-19T22:08:39.338Z,21.00
2018-09-19T22:11:08.428Z,21.00
2018-09-19T22:13:37.385Z,21.00
2018-09-19T22:16:06.234Z,20.90
2018-09-19T22:18:35.264Z,20.90
2018-09-19T22:21:04.261Z,20.80
2018-09-19T22:23:33.204Z,20.80
2018-09-19T22:26:02.287Z,20.80
2018-09-19T22:28:31.195Z,20.80
2018-09-19T22:31:00.225Z,20.80
2018-09-19T22:33:29.078Z,20.80
2018-09-19T22:35:58.527Z,20.70
2018-09-19T22:38:28.592Z,20.70
2018-09-19T22:40:57.469Z,20.70
2018-09-19T22:43:26.433Z,20.70
2018-09-19T22:45:55.371Z,20.70
2018-09-19T22:48:24.612Z,20.70
2018-09-19T22:50:53.553Z,20.70
2018-09-19T22:53:22.517Z,20.70
2018-09-19T22:55:51.452Z,20.60
2018-09-19T22:58:20.389Z,20.60
2018-09-19T23:00:49.244Z,20.50
2018-09-19T23:03:18.101Z,20.40
2018-09-19T23:05:47.112Z,20.20
2018-09-19T23:08:16.087Z,20.30
2018-09-19T23:10:44.973Z,20.30
2018-09-19T23:13:13.929Z,20.20
2018-09-19T23:15:42.870Z,20.20
2018-09-19T23:18:11.813Z,20.20
2018-09-19T23:20:40.688Z,20.10
2018-09-19T23:23:09.561Z,20.10
2018-09-19T23:25:39.504Z,20.00
2018-09-19T23:28:08.390Z,20.00
2018-09-19T23:30:37.270Z,20.10
2018-09-19T23:33:06.154Z,20.00
2018-09-19T23:35:35.282Z,19.80
2018-09-19T23:38:04.749Z,20.00
2018-09-19T23:40:34.065Z,19.90
2018-09-19T23:43:03.099Z,19.90
2018-09-19T23:45:31.930Z,19.90
2018-09-19T23:48:00.813Z,19.90
2018-09-19T23:50:29.748Z,19.90
2018-09-19T23:52:58.682Z,19.90
2018-09-19T23:55:27.590Z,19.90
2018-09-19T23:57:56.565Z,19.80
